Time;durP1;ratioP1;P1;durP2;ratioP2;P2;SDS_P1;SDS_P2;PMS_P1;PMS_P2;Temp;Humidity;BMP_temperature;BMP_pressure;BME280_temperature;BME280_humidity;BME280_pressure;Samples;Min_cycle;Max_cycle;Signal;HPM_P1;HPM_P2
2022/09/11 00:00:47;;;;;;;;;;;;;;;17.61;76.32;101844.75;1991006;29;20451;-69
2022/09/11 00:01:49;;;;;;;;;;;;;;;17.60;76.51;101848.63;1989030;29;19929;-69
2022/09/11 00:02:52;;;;;;;;;;;;;;;17.59;76.37;101847.06;1988742;29;19932;-69
2022/09/11 00:03:55;;;;;;;;;;;;;;;17.58;76.57;101839.22;1996335;29;19931;-69
2022/09/11 00:04:57;;;;;;;;;;;;;;;17.56;76.75;101839.59;1996654;29;20476;-69
2022/09/11 00:06:00;;;;;;;;;;;;;;;17.55;76.55;101840.72;2000398;29;20007;-69
2022/09/11 00:07:03;;;;;;;;;;;;;;;17.53;76.39;101836.78;1994375;29;20396;-69
2022/09/11 00:08:06;;;;;;;;;;;;;;;17.53;76.47;101848.50;1988931;29;20361;-69
2022/09/11 00:09:10;;;;;;;;;;;;;;;17.51;76.67;101848.06;1991577;29;19929;-69
2022/09/11 00:10:12;;;;;;;;;;;;;;;17.49;76.40;101849.59;1990896;29;20389;-69
2022/09/11 00:11:16;;;;;;;;;;;;;;;17.47;76.47;101849.16;1994463;29;19932;-69
2022/09/11 00:12:19;;;;;;;;;;;;;;;17.44;76.96;101855.31;2000932;29;19935;-69
2022/09/11 00:13:22;;;;;;;;;;;;;;;17.43;77.13;101854.53;1993040;29;19933;-69
2022/09/11 00:14:25;;;;;;;;;;;;;;;17.42;77.10;101852.16;1993248;29;19925;-69
2022/09/11 00:15:27;;;;;;;;;;;;;;;17.41;76.92;101850.59;1993497;29;19935;-69
2022/09/11 00:16:32;;;;;;;;;;;;;;;17.41;77.15;101856.81;1988442;29;19929;-69
2022/09/11 00:17:35;;;;;;;;;;;;;;;17.42;77.12;101852.16;1988152;29;19936;-69
2022/09/11 00:18:36;;;;;;;;;;;;;;;17.41;77.00;101850.59;1997281;29;19925;-69
2022/09/11 00:19:41;;;;;;;;;;;;;;;17.41;76.93;101856.06;1993771;29;19925;-69
2022/09/11 00:20:48;;;;;;;;;;;;;;;17.40;76.88;101849.00;1997261;29;19929;-69
2022/09/11 00:21:51;;;;;;;;;;;;;;;17.39;76.99;101845.50;1994183;29;19928;-69
2022/09/11 00:22:53;;;;;;;;;;;;;;;17.38;77.09;101852.09;1988117;29;19929;-69
2022/09/11 00:23:56;;;;;;;;;;;;;;;17.37;76.96;101852.44;1989298;29;20270;-69
2022/09/11 00:24:59;;;;;;;;;;;;;;;17.36;76.95;101848.91;1995603;29;20300;-69
2022/09/11 00:26:02;;;;;;;;;;;;;;;17.35;77.23;101850.09;1998297;29;19928;-69
2022/09/11 00:27:05;;;;;;;;;;;;;;;17.35;76.87;101852.00;1994607;29;19932;-69
2022/09/11 00:28:12;;;;;;;;;;;;;;;17.32;77.20;101850.81;1996080;29;20407;-69
2022/09/11 00:29:13;;;;;;;;;;;;;;;17.33;77.21;101846.16;1985698;29;19954;-69
2022/09/11 00:30:17;;;;;;;;;;;;;;;17.32;77.33;101847.28;1988158;29;19925;-69
2022/09/11 00:31:20;;;;;;;;;;;;;;;17.32;77.47;101847.28;1981852;29;19932;-69
2022/09/11 00:32:23;;;;;;;;;;;;;;;17.30;77.15;101844.16;1980043;29;20641;-69
2022/09/11 00:33:26;;;;;;;;;;;;;;;17.29;77.37;101843.34;1992718;29;19951;-69
2022/09/11 00:34:31;;;;;;;;;;;;;;;17.28;77.42;101857.34;1993715;29;19933;-69
2022/09/11 00:35:34;;;;;;;;;;;;;;;17.27;77.18;101847.56;1992562;29;19932;-69
2022/09/11 00:36:43;;;;;;;;;;;;;;;17.25;77.24;101849.88;1989476;29;19929;-69
2022/09/11 00:37:47;;;;;;;;;;;;;;;17.25;76.78;101855.34;1988188;29;20441;-69
2022/09/11 00:38:57;;;;;;;;;;;;;;;17.23;76.59;101857.63;1993936;29;19928;-69
2022/09/11 00:40:03;;;;;;;;;;;;;;;17.22;76.49;101858.81;1995600;29;19939;-69
2022/09/11 00:41:12;;;;;;;;;;;;;;;17.21;77.37;101846.28;1998499;29;19951;-69
2022/09/11 00:42:24;;;;;;;;;;;;;;;17.19;76.70;101854.84;1993091;29;19980;-69
2022/09/11 00:43:30;;;;;;;;;;;;;;;17.18;77.00;101855.19;1995059;29;19925;-69
2022/09/11 00:44:59;;;;;;;;;;;;;;;17.18;76.93;101857.94;1994145;29;19932;-69
2022/09/11 00:46:05;;;;;;;;;;;;;;;17.17;77.33;101853.63;1989832;29;19925;-69
2022/09/11 00:47:08;;;;;;;;;;;;;;;17.16;77.17;101855.56;1988779;29;19933;-69
2022/09/11 00:48:19;;;;;;;;;;;;;;;17.14;77.04;101855.13;1994568;29;19928;-69
2022/09/11 00:49:26;;;;;;;;;;;;;;;17.13;77.03;101852.75;1992696;29;19939;-69
2022/09/11 00:50:33;;;;;;;;;;;;;;;17.10;77.40;101850.75;1988552;29;20355;-69
2022/09/11 00:51:44;;;;;;;;;;;;;;;17.06;77.45;101855.34;1991814;29;20049;-69
2022/09/11 00:52:52;;;;;;;;;;;;;;;17.06;77.72;101847.94;1994657;29;20011;-69
2022/09/11 00:53:57;;;;;;;;;;;;;;;17.04;77.65;101853.00;1998480;29;19932;-69
2022/09/11 00:55:05;;;;;;;;;;;;;;;17.04;77.55;101852.19;1987991;29;19951;-69
2022/09/11 00:56:12;;;;;;;;;;;;;;;17.03;77.50;101850.63;1980885;29;19940;-69
2022/09/11 00:57:18;;;;;;;;;;;;;;;17.01;77.45;101848.25;1987552;29;19925;-69
2022/09/11 00:58:22;;;;;;;;;;;;;;;17.00;77.50;101851.34;1990077;29;19933;-69
2022/09/11 00:59:27;;;;;;;;;;;;;;;16.99;77.71;101856.00;1992117;29;19925;-69
2022/09/11 01:00:33;;;;;;;;;;;;;;;16.97;77.09;101847.38;2000812;29;19928;-69
2022/09/11 01:01:40;;;;;;;;;;;;;;;16.97;77.20;101854.75;1995187;29;19924;-69
2022/09/11 01:02:46;;;;;;;;;;;;;;;16.95;77.07;101852.38;1983420;29;19926;-68
2022/09/11 01:03:49;;;;;;;;;;;;;;;16.96;76.96;101853.19;1987776;29;19978;-69
2022/09/11 01:04:51;;;;;;;;;;;;;;;16.94;77.26;101852.75;1991265;29;20042;-69
2022/09/11 01:05:54;;;;;;;;;;;;;;;16.94;77.25;101852.75;1987617;29;19985;-68
2022/09/11 01:06:58;;;;;;;;;;;;;;;16.94;77.56;101847.28;1993201;29;19982;-69
2022/09/11 01:08:02;;;;;;;;;;;;;;;16.94;77.31;101852.75;1991812;29;19932;-69
2022/09/11 01:09:05;;;;;;;;;;;;;;;16.93;77.30;101846.53;1996112;29;19932;-69
2022/09/11 01:10:09;;;;;;;;;;;;;;;16.93;77.52;101851.19;1991918;29;20387;-68
2022/09/11 01:11:19;;;;;;;;;;;;;;;16.93;77.13;101853.91;1987710;29;19932;-69
2022/09/11 01:12:26;;;;;;;;;;;;;;;16.90;77.07;101846.44;1988116;29;19959;-68
2022/09/11 01:13:33;;;;;;;;;;;;;;;16.89;77.08;101851.09;1995880;29;20304;-69
2022/09/11 01:14:40;;;;;;;;;;;;;;;16.88;76.88;101846.00;1994250;29;19958;-69
2022/09/11 01:15:49;;;;;;;;;;;;;;;16.87;77.04;101847.16;1979907;29;20041;-69
2022/09/11 01:16:53;;;;;;;;;;;;;;;16.85;77.22;101844.78;1987487;29;19932;-69
2022/09/11 01:18:02;;;;;;;;;;;;;;;16.85;77.00;101849.44;1995320;29;20016;-69
2022/09/11 01:19:12;;;;;;;;;;;;;;;16.82;77.16;101845.53;1994893;29;19928;-69
2022/09/11 01:20:25;;;;;;;;;;;;;;;16.82;77.21;101844.72;1984498;29;19925;-69
2022/09/11 01:21:35;;;;;;;;;;;;;;;16.82;77.19;101850.16;1985741;29;20396;-69
2022/09/11 01:22:48;;;;;;;;;;;;;;;16.82;77.03;101847.44;1984557;29;19932;-69
2022/09/11 01:23:59;;;;;;;;;;;;;;;16.80;77.13;101853.25;1983363;29;20372;-69
2022/09/11 01:25:08;;;;;;;;;;;;;;;16.79;76.91;101850.88;1984960;29;19936;-69
2022/09/11 01:26:34;;;;;;;;;;;;;;;16.78;77.14;101839.19;1991437;29;20342;-69
2022/09/11 01:27:41;;;;;;;;;;;;;;;16.77;77.31;101845.00;1975606;29;20420;-69
2022/09/11 01:28:46;;;;;;;;;;;;;;;16.76;77.20;101851.59;1989096;29;19936;-68
2022/09/11 01:29:51;;;;;;;;;;;;;;;16.75;77.14;101847.28;1987309;29;19929;-69
2022/09/11 01:30:54;;;;;;;;;;;;;;;16.74;77.04;101853.91;1999815;29;19935;-69
2022/09/11 01:32:03;;;;;;;;;;;;;;;16.73;77.66;101853.09;1990273;29;20040;-69
2022/09/11 01:33:11;;;;;;;;;;;;;;;16.70;77.51;101842.91;1987438;29;19929;-69
2022/09/11 01:34:16;;;;;;;;;;;;;;;16.69;77.65;101846.78;1996819;29;20082;-69
2022/09/11 01:35:23;;;;;;;;;;;;;;;16.68;77.67;101847.16;1984711;29;19932;-69
2022/09/11 01:36:28;;;;;;;;;;;;;;;16.66;77.37;101854.88;1972657;30;19951;-69
2022/09/11 01:37:36;;;;;;;;;;;;;;;16.64;77.69;101851.72;1972730;30;19925;-69
2022/09/11 01:38:40;;;;;;;;;;;;;;;16.62;77.68;101841.16;1988887;29;20456;-69
2022/09/11 01:39:44;;;;;;;;;;;;;;;16.60;77.62;101848.13;1994425;29;20077;-68
2022/09/11 01:40:51;;;;;;;;;;;;;;;16.60;78.10;101848.13;1991413;29;19947;-68
2022/09/11 01:41:59;;;;;;;;;;;;;;;16.58;77.98;101847.69;1998149;29;19932;-68
2022/09/11 01:43:05;;;;;;;;;;;;;;;16.56;78.04;101845.31;1987982;29;20313;-68
2022/09/11 01:44:10;;;;;;;;;;;;;;;16.56;78.12;101849.97;1979337;29;20328;-68
2022/09/11 01:45:15;;;;;;;;;;;;;;;16.53;77.89;101847.97;1971558;30;19934;-68
2022/09/11 01:46:21;;;;;;;;;;;;;;;16.53;77.82;101851.50;1981923;29;19925;-68
2022/09/11 01:47:26;;;;;;;;;;;;;;;16.53;78.13;101853.41;1990937;29;19977;-69
2022/09/11 01:48:31;;;;;;;;;;;;;;;16.52;78.34;101854.56;1982200;29;19929;-68
2022/09/11 01:49:35;;;;;;;;;;;;;;;16.51;78.09;101851.06;1985202;29;20444;-68
2022/09/11 01:50:40;;;;;;;;;;;;;;;16.51;78.35;101858.47;1986609;29;19929;-68
2022/09/11 01:51:42;;;;;;;;;;;;;;;16.50;78.18;101848.69;1989289;29;20418;-69
2022/09/11 01:52:49;;;;;;;;;;;;;;;16.49;78.17;101847.09;1988875;29;19936;-68
2022/09/11 01:53:52;;;;;;;;;;;;;;;16.49;77.89;101858.00;1993087;29;19929;-69
2022/09/11 01:54:58;;;;;;;;;;;;;;;16.48;77.90;101854.50;1981643;29;19925;-68
2022/09/11 01:56:02;;;;;;;;;;;;;;;16.47;78.25;101849.41;1977522;29;20386;-68
2022/09/11 01:57:12;;;;;;;;;;;;;;;16.46;78.12;101854.03;1983816;29;19955;-68
2022/09/11 01:58:20;;;;;;;;;;;;;;;16.44;77.99;101850.88;1984848;29;19925;-68
2022/09/11 01:59:26;;;;;;;;;;;;;;;16.42;77.82;101853.97;1980556;29;19948;-68
2022/09/11 02:00:30;;;;;;;;;;;;;;;16.42;77.92;101859.41;1986098;29;20015;-68
2022/09/11 02:01:34;;;;;;;;;;;;;;;16.41;78.05;101860.53;1980946;29;20386;-68
2022/09/11 02:02:41;;;;;;;;;;;;;;;16.40;77.89;101856.25;1975264;29;19926;-68
2022/09/11 02:03:47;;;;;;;;;;;;;;;16.39;78.01;101849.19;1988648;29;20285;-68
2022/09/11 02:04:50;;;;;;;;;;;;;;;16.38;77.91;101858.53;1986223;29;20315;-68
2022/09/11 02:05:57;;;;;;;;;;;;;;;16.38;78.14;101858.53;1980113;29;20386;-68
2022/09/11 02:07:02;;;;;;;;;;;;;;;16.37;77.76;101856.16;1987495;29;19936;-68
2022/09/11 02:08:08;;;;;;;;;;;;;;;16.35;77.87;101853.78;1988416;29;20016;-68
2022/09/11 02:09:15;;;;;;;;;;;;;;;16.34;77.96;101849.50;1987906;29;20004;-68
2022/09/11 02:10:20;;;;;;;;;;;;;;;16.33;77.77;101861.50;1987717;29;19974;-69
2022/09/11 02:11:23;;;;;;;;;;;;;;;16.33;77.70;101855.28;1982826;29;20282;-69
2022/09/11 02:12:29;;;;;;;;;;;;;;;16.32;77.84;101853.69;1980879;29;20467;-68
2022/09/11 02:13:41;;;;;;;;;;;;;;;16.31;77.88;101850.19;1979534;30;19929;-68
2022/09/11 02:14:46;;;;;;;;;;;;;;;16.30;77.73;101851.31;1987604;29;19961;-69
2022/09/11 02:15:50;;;;;;;;;;;;;;;16.28;77.59;101848.16;1986720;29;20385;-69
2022/09/11 02:16:59;;;;;;;;;;;;;;;16.28;77.78;101848.16;1978803;30;20504;-69
2022/09/11 02:18:02;;;;;;;;;;;;;;;16.27;78.02;101849.31;1977338;29;19929;-69
2022/09/11 02:19:09;;;;;;;;;;;;;;;16.27;77.68;101843.06;1982266;29;19940;-69
2022/09/11 02:20:11;;;;;;;;;;;;;;;16.27;77.90;101845.78;1979312;30;20018;-68
2022/09/11 02:21:13;;;;;;;;;;;;;;;16.24;77.44;101850.03;1986092;29;20044;-68
2022/09/11 02:22:15;;;;;;;;;;;;;;;16.24;77.37;101851.94;1992382;29;20346;-68
2022/09/11 02:23:18;;;;;;;;;;;;;;;16.23;77.40;101853.91;1997324;29;19936;-69
2022/09/11 02:24:20;;;;;;;;;;;;;;;16.23;77.47;101850.38;1996947;29;19924;-69
2022/09/11 02:25:22;;;;;;;;;;;;;;;16.22;77.55;101851.53;1988777;29;19925;-69
2022/09/11 02:26:30;;;;;;;;;;;;;;;16.21;78.73;101841.75;1981205;29;20343;-68
2022/09/11 02:27:33;;;;;;;;;;;;;;;16.20;78.94;101848.34;1980343;29;19998;-69
2022/09/11 02:28:36;;;;;;;;;;;;;;;16.19;79.12;101844.84;1981390;29;20360;-68
2022/09/11 02:29:39;;;;;;;;;;;;;;;16.18;79.01;101851.44;1985734;29;19929;-69
2022/09/11 02:30:41;;;;;;;;;;;;;;;16.19;79.36;101852.22;1991109;29;19929;-69
2022/09/11 02:31:44;;;;;;;;;;;;;;;16.17;79.27;101852.56;1990425;29;19937;-68
2022/09/11 02:32:46;;;;;;;;;;;;;;;16.16;79.11;101845.53;1986166;29;20024;-68
2022/09/11 02:33:50;;;;;;;;;;;;;;;16.15;79.19;101846.69;1983304;29;19928;-68
2022/09/11 02:34:54;;;;;;;;;;;;;;;16.16;78.97;101853.72;1979269;29;19932;-68
2022/09/11 02:36:04;;;;;;;;;;;;;;;16.16;78.78;101844.75;1979712;29;19960;-69
2022/09/11 02:37:10;;;;;;;;;;;;;;;16.16;78.75;101856.44;1988430;29;19933;-69
2022/09/11 02:38:16;;;;;;;;;;;;;;;16.15;78.79;101854.06;1978597;29;19929;-69
2022/09/11 02:39:25;;;;;;;;;;;;;;;16.14;78.64;101853.28;1980845;29;19934;-69
2022/09/11 02:40:44;;;;;;;;;;;;;;;16.14;78.67;101858.72;1980373;29;20008;-69
2022/09/11 02:42:02;;;;;;;;;;;;;;;16.11;79.05;101848.53;1990291;29;19933;-69
2022/09/11 02:43:13;;;;;;;;;;;;;;;16.11;78.87;101845.81;1988806;29;19925;-69
2022/09/11 02:44:22;;;;;;;;;;;;;;;16.08;78.64;101849.25;1980615;29;20393;-69
2022/09/11 02:45:33;;;;;;;;;;;;;;;16.06;78.96;101846.06;1985727;29;20397;-68
2022/09/11 02:46:47;;;;;;;;;;;;;;;16.03;79.29;101849.50;1975718;29;19925;-69
2022/09/11 02:47:55;;;;;;;;;;;;;;;16.01;79.69;101853.75;1987746;29;19980;-69
2022/09/11 02:49:01;;;;;;;;;;;;;;;15.97;79.49;101850.91;1991037;29;19936;-69
2022/09/11 02:50:09;;;;;;;;;;;;;;;15.94;79.55;101848.09;1988898;29;19982;-69
2022/09/11 02:51:16;;;;;;;;;;;;;;;15.91;79.65;101846.88;1984428;29;20402;-69
2022/09/11 02:52:22;;;;;;;;;;;;;;;15.90;80.10;101848.00;1988293;29;19928;-69
2022/09/11 02:53:28;;;;;;;;;;;;;;;15.89;79.93;101843.72;1993057;29;20369;-69
2022/09/11 02:54:35;;;;;;;;;;;;;;;15.90;79.89;101853.44;1991842;29;19925;-69
2022/09/11 02:55:46;;;;;;;;;;;;;;;15.90;79.44;101853.44;1983056;29;19975;-69
2022/09/11 02:56:53;;;;;;;;;;;;;;;15.90;79.60;101853.44;1972308;30;20742;-69
2022/09/11 02:57:59;;;;;;;;;;;;;;;15.90;79.41;101855.41;1983458;29;19995;-68
2022/09/11 02:59:05;;;;;;;;;;;;;;;15.90;79.26;101863.56;1991400;29;20339;-68
2022/09/11 03:00:10;;;;;;;;;;;;;;;15.88;79.49;101858.47;1979389;29;19929;-68
2022/09/11 03:01:13;;;;;;;;;;;;;;;15.88;79.75;101861.22;1984393;29;19929;-68
2022/09/11 03:02:17;;;;;;;;;;;;;;;15.87;79.40;101864.28;1982445;29;19976;-68
2022/09/11 03:03:20;;;;;;;;;;;;;;;15.85;79.52;101867.34;1982405;29;19941;-69
2022/09/11 03:04:23;;;;;;;;;;;;;;;15.84;79.75;101871.19;1975866;29;20021;-69
2022/09/11 03:05:28;;;;;;;;;;;;;;;15.83;79.81;101875.09;1987187;29;19925;-69
2022/09/11 03:06:29;;;;;;;;;;;;;;;15.82;79.92;101878.97;1983806;29;20311;-69
2022/09/11 03:07:32;;;;;;;;;;;;;;;15.80;79.99;101864.88;1984442;29;20432;-69
2022/09/11 03:08:34;;;;;;;;;;;;;;;15.79;79.74;101865.25;1986373;29;19980;-69
2022/09/11 03:09:37;;;;;;;;;;;;;;;15.79;79.93;101874.19;1980613;29;20404;-69
2022/09/11 03:10:45;;;;;;;;;;;;;;;15.79;80.05;101873.41;1980911;29;19974;-69
2022/09/11 03:11:48;;;;;;;;;;;;;;;15.79;79.93;101874.19;1980478;29;19929;-68
2022/09/11 03:12:50;;;;;;;;;;;;;;;15.78;80.27;101874.53;1989218;29;20411;-68
2022/09/11 03:13:57;;;;;;;;;;;;;;;15.77;80.05;101875.69;1988988;29;20077;-68
2022/09/11 03:15:00;;;;;;;;;;;;;;;15.74;80.24;101874.47;1987688;29;19929;-70
2022/09/11 03:16:05;;;;;;;;;;;;;;;15.75;80.02;101877.97;1983194;29;20099;-69
2022/09/11 03:17:06;;;;;;;;;;;;;;;15.74;80.17;101879.91;1980737;29;20016;-67
2022/09/11 03:18:14;;;;;;;;;;;;;;;15.74;80.11;101871.75;1982169;29;19937;-69
2022/09/11 03:19:16;;;;;;;;;;;;;;;15.74;80.06;101876.38;1984810;29;19981;-69
2022/09/11 03:20:20;;;;;;;;;;;;;;;15.74;79.89;101873.66;1980216;29;20496;-69
2022/09/11 03:21:22;;;;;;;;;;;;;;;15.72;79.91;101873.22;1981032;29;19976;-69
2022/09/11 03:22:25;;;;;;;;;;;;;;;15.73;79.82;101875.59;1988623;29;19986;-69
2022/09/11 03:23:27;;;;;;;;;;;;;;;15.72;79.81;101875.94;1987995;29;19929;-69
2022/09/11 03:24:30;;;;;;;;;;;;;;;15.71;79.69;101872.44;1982721;29;19925;-69
2022/09/11 03:25:33;;;;;;;;;;;;;;;15.71;79.75;101882.53;1981068;29;19929;-69
2022/09/11 03:26:38;;;;;;;;;;;;;;;15.69;79.88;101879.38;1980503;29;20328;-69
2022/09/11 03:27:40;;;;;;;;;;;;;;;15.67;80.22;101882.44;1992766;29;20348;-69
2022/09/11 03:28:46;;;;;;;;;;;;;;;15.66;80.16;101880.06;1975004;29;20051;-69
2022/09/11 03:29:49;;;;;;;;;;;;;;;15.64;80.29;101885.06;1972744;30;20286;-69
2022/09/11 03:30:52;;;;;;;;;;;;;;;15.62;80.09;101879.97;1984794;29;19954;-69
2022/09/11 03:31:58;;;;;;;;;;;;;;;15.61;80.35;101878.38;1982765;29;20031;-69
2022/09/11 03:33:00;;;;;;;;;;;;;;;15.60;80.28;101881.47;1980539;29;20455;-69
2022/09/11 03:34:02;;;;;;;;;;;;;;;15.59;80.41;101877.94;1973651;29;20021;-69
2022/09/11 03:35:05;;;;;;;;;;;;;;;15.60;80.58;101887.69;1968456;30;19930;-69
2022/09/11 03:36:08;;;;;;;;;;;;;;;15.60;80.52;101884.97;1980901;29;19925;-69
2022/09/11 03:37:10;;;;;;;;;;;;;;;15.59;80.56;101885.31;1988764;29;19932;-69
2022/09/11 03:38:14;;;;;;;;;;;;;;;15.58;80.48;101884.53;1981542;29;19965;-69
2022/09/11 03:39:16;;;;;;;;;;;;;;;15.57;80.42;101882.16;1973123;30;19926;-69
2022/09/11 03:40:20;;;;;;;;;;;;;;;15.56;80.40;101878.63;1983830;29;20309;-68
2022/09/11 03:41:21;;;;;;;;;;;;;;;15.54;80.42;101882.88;1989297;29;19933;-69
2022/09/11 03:42:26;;;;;;;;;;;;;;;15.54;80.70;101880.13;1987740;29;19933;-69
2022/09/11 03:43:28;;;;;;;;;;;;;;;15.53;80.75;101879.34;1988114;29;19932;-69
2022/09/11 03:44:31;;;;;;;;;;;;;;;15.53;80.84;101883.97;1988484;29;19925;-70
2022/09/11 03:45:33;;;;;;;;;;;;;;;15.52;80.69;101880.50;1992172;29;19929;-69
2022/09/11 03:46:37;;;;;;;;;;;;;;;15.53;80.43;101879.34;1989891;29;19936;-70
2022/09/11 03:47:40;;;;;;;;;;;;;;;15.52;80.80;101885.13;1980287;30;20310;-69
2022/09/11 03:48:44;;;;;;;;;;;;;;;15.52;80.86;101880.50;1987140;29;19929;-69
2022/09/11 03:49:47;;;;;;;;;;;;;;;15.51;80.70;101883.53;1992028;29;20011;-70
2022/09/11 03:50:50;;;;;;;;;;;;;;;15.51;80.79;101880.81;1980697;29;20012;-69
2022/09/11 03:51:52;;;;;;;;;;;;;;;15.50;80.90;101881.97;1978944;29;20559;-70
2022/09/11 03:52:55;;;;;;;;;;;;;;;15.50;80.92;101880.03;1979512;29;20321;-70
2022/09/11 03:53:57;;;;;;;;;;;;;;;15.50;80.82;101885.47;1980485;29;20435;-69
2022/09/11 03:55:01;;;;;;;;;;;;;;;15.50;80.82;101885.47;1981220;29;19925;-70
2022/09/11 03:56:05;;;;;;;;;;;;;;;15.50;81.06;101888.22;1982226;29;19929;-70
2022/09/11 03:57:14;;;;;;;;;;;;;;;15.50;80.76;101887.41;1986117;29;19977;-70
2022/09/11 03:58:17;;;;;;;;;;;;;;;15.49;80.63;101880.38;1982086;29;20397;-70
2022/09/11 03:59:21;;;;;;;;;;;;;;;15.50;79.97;101876.50;1988061;29;20385;-70
2022/09/11 04:00:23;;;;;;;;;;;;;;;15.48;80.15;101881.50;1982289;29;19955;-69
2022/09/11 04:01:29;;;;;;;;;;;;;;;15.46;79.85;101881.84;1973412;29;20326;-69
2022/09/11 04:02:31;;;;;;;;;;;;;;;15.44;79.66;101886.88;1980387;29;19972;-70
2022/09/11 04:03:35;;;;;;;;;;;;;;;15.44;79.67;101888.81;1993917;29;19971;-70
2022/09/11 04:04:37;;;;;;;;;;;;;;;15.43;80.07;101887.22;1983094;29;20493;-69
2022/09/11 04:05:40;;;;;;;;;;;;;;;15.41;80.05;101890.31;1984174;29;20389;-69
2022/09/11 04:06:42;;;;;;;;;;;;;;;15.40;80.02;101893.34;1980045;29;19930;-70
2022/09/11 04:07:44;;;;;;;;;;;;;;;15.39;80.17;101889.03;1982031;29;20390;-69
2022/09/11 04:08:46;;;;;;;;;;;;;;;15.39;79.95;101886.31;1980260;29;20331;-69
2022/09/11 04:09:49;;;;;;;;;;;;;;;15.38;80.12;101890.16;1998580;29;19963;-69
2022/09/11 04:10:55;;;;;;;;;;;;;;;15.37;80.06;101894.81;1987207;29;19925;-69
2022/09/11 04:11:58;;;;;;;;;;;;;;;15.36;79.89;101893.22;1987053;29;19936;-69
2022/09/11 04:13:01;;;;;;;;;;;;;;;15.36;80.19;101904.13;1990122;29;19936;-70
2022/09/11 04:14:04;;;;;;;;;;;;;;;15.34;80.08;101895.50;1981602;29;19976;-68
2022/09/11 04:15:06;;;;;;;;;;;;;;;15.33;80.71;101898.56;1981571;29;19940;-69
2022/09/11 04:16:11;;;;;;;;;;;;;;;15.31;80.43;101893.47;1973011;29;19930;-68
2022/09/11 04:17:15;;;;;;;;;;;;;;;15.29;80.55;101898.47;1975152;29;19984;-68
2022/09/11 04:18:17;;;;;;;;;;;;;;;15.28;80.68;101896.88;1993465;29;19924;-68
2022/09/11 04:19:22;;;;;;;;;;;;;;;15.28;81.08;101907.78;1988507;29;19945;-68
2022/09/11 04:20:26;;;;;;;;;;;;;;;15.28;80.52;101907.78;1974704;29;20036;-68
2022/09/11 04:21:28;;;;;;;;;;;;;;;15.27;80.58;101911.63;1979697;29;19945;-68
2022/09/11 04:22:31;;;;;;;;;;;;;;;15.26;80.43;101909.25;1986154;29;19933;-68
2022/09/11 04:23:33;;;;;;;;;;;;;;;15.25;80.34;101913.91;1979881;29;19952;-68
2022/09/11 04:24:36;;;;;;;;;;;;;;;15.24;80.11;101912.31;1986640;29;19929;-68
2022/09/11 04:25:38;;;;;;;;;;;;;;;15.23;80.37;101916.19;1989944;29;20628;-68
2022/09/11 04:26:41;;;;;;;;;;;;;;;15.24;80.26;101917.75;1987215;29;19961;-69
2022/09/11 04:27:49;;;;;;;;;;;;;;;15.22;80.59;101903.72;1980024;29;20375;-68
2022/09/11 04:28:52;;;;;;;;;;;;;;;15.22;80.53;101911.09;1979647;29;19958;-68
2022/09/11 04:29:54;;;;;;;;;;;;;;;15.22;80.20;101916.53;1979981;29;20082;-68
2022/09/11 04:31:02;;;;;;;;;;;;;;;15.20;79.75;101916.88;1979571;29;19977;-69
2022/09/11 04:32:07;;;;;;;;;;;;;;;15.18;80.33;101919.13;1979982;29;20327;-68
2022/09/11 04:33:11;;;;;;;;;;;;;;;15.16;80.71;101921.41;1980228;29;19963;-68
2022/09/11 04:34:13;;;;;;;;;;;;;;;15.14;80.95;101917.44;1979792;29;19936;-68
2022/09/11 04:35:17;;;;;;;;;;;;;;;15.09;81.10;101910.34;1986492;29;19936;-68
2022/09/11 04:36:25;;;;;;;;;;;;;;;15.07;80.94;101919.94;1987288;29;20048;-68
2022/09/11 04:37:28;;;;;;;;;;;;;;;15.05;80.84;101908.66;1991193;29;20461;-68
2022/09/11 04:38:30;;;;;;;;;;;;;;;15.03;81.37;101914.44;1979802;29;19925;-68
2022/09/11 04:39:33;;;;;;;;;;;;;;;15.04;81.27;101916.00;1979799;30;19929;-68
2022/09/11 04:40:37;;;;;;;;;;;;;;;15.04;81.79;101918.72;1985747;29;20286;-68
2022/09/11 04:41:39;;;;;;;;;;;;;;;15.03;81.92;101917.16;1987063;29;19925;-69
2022/09/11 04:42:44;;;;;;;;;;;;;;;15.01;81.76;101917.47;1986726;29;19958;-68
2022/09/11 04:43:54;;;;;;;;;;;;;;;15.00;81.59;101912.38;1992312;29;19981;-69
2022/09/11 04:44:57;;;;;;;;;;;;;;;14.99;82.04;101921.69;1987491;29;19929;-69
2022/09/11 04:46:01;;;;;;;;;;;;;;;14.97;81.80;101915.78;1994837;29;20376;-69
2022/09/11 04:47:04;;;;;;;;;;;;;;;14.96;81.74;101916.94;1986786;29;19932;-69
2022/09/11 04:48:07;;;;;;;;;;;;;;;14.96;81.85;101919.66;1987013;29;19929;-69
2022/09/11 04:49:10;;;;;;;;;;;;;;;14.96;82.26;101912.28;1994259;29;20298;-69
2022/09/11 04:50:13;;;;;;;;;;;;;;;14.95;81.66;101920.78;1985450;29;20547;-69
2022/09/11 04:51:19;;;;;;;;;;;;;;;14.93;81.76;101920.34;1987469;29;19936;-69
2022/09/11 04:52:22;;;;;;;;;;;;;;;14.96;81.71;101922.38;1985830;29;20393;-69
2022/09/11 04:53:24;;;;;;;;;;;;;;;14.97;81.79;101929.38;1985056;29;19930;-69
2022/09/11 04:54:26;;;;;;;;;;;;;;;14.97;81.69;101929.38;1987782;29;19937;-69
2022/09/11 04:55:28;;;;;;;;;;;;;;;14.97;81.30;101923.94;1993044;29;20444;-69
2022/09/11 04:56:33;;;;;;;;;;;;;;;14.96;81.54;101927.81;1993464;29;19929;-69
2022/09/11 04:57:35;;;;;;;;;;;;;;;14.95;81.60;101927.00;1987114;29;20371;-68
2022/09/11 04:58:38;;;;;;;;;;;;;;;14.94;81.37;101930.06;1979341;30;19998;-69
2022/09/11 04:59:40;;;;;;;;;;;;;;;14.94;81.42;101939.03;1979723;29;20021;-68
2022/09/11 05:00:46;;;;;;;;;;;;;;;14.95;81.71;101931.69;1980145;29;19929;-68
2022/09/11 05:01:48;;;;;;;;;;;;;;;14.95;81.64;101931.69;1993117;29;20033;-70
2022/09/11 05:02:52;;;;;;;;;;;;;;;14.95;81.81;101931.69;1991980;29;19928;-69
2022/09/11 05:03:55;;;;;;;;;;;;;;;14.95;82.15;101929.72;1979810;29;19926;-70
2022/09/11 05:04:57;;;;;;;;;;;;;;;14.97;81.62;101937.53;1985911;29;20020;-69
2022/09/11 05:06:04;;;;;;;;;;;;;;;14.95;81.49;101937.88;1986470;29;19968;-68
2022/09/11 05:07:12;;;;;;;;;;;;;;;14.98;81.87;101936.44;1987150;29;20024;-69
2022/09/11 05:08:17;;;;;;;;;;;;;;;14.99;81.71;101938.00;1986915;29;19929;-68
2022/09/11 05:09:21;;;;;;;;;;;;;;;14.98;81.57;101937.19;1979941;29;19933;-68
2022/09/11 05:10:26;;;;;;;;;;;;;;;15.01;81.60;101938.47;1987149;29;19929;-68
2022/09/11 05:11:29;;;;;;;;;;;;;;;15.01;81.80;101941.94;1986813;29;20477;-69
2022/09/11 05:12:31;;;;;;;;;;;;;;;15.02;81.50;101937.31;1978890;29;19925;-68
2022/09/11 05:13:34;;;;;;;;;;;;;;;15.02;81.72;101937.31;1979475;29;19929;-68
2022/09/11 05:14:40;;;;;;;;;;;;;;;15.03;82.17;101933.47;1979843;29;19929;-69
2022/09/11 05:15:43;;;;;;;;;;;;;;;15.03;82.17;101933.47;1993935;29;19958;-68
2022/09/11 05:16:45;;;;;;;;;;;;;;;15.03;81.91;101936.19;1995086;29;19944;-69
2022/09/11 05:17:49;;;;;;;;;;;;;;;15.03;82.01;101930.75;1985825;29;20011;-68
2022/09/11 05:18:55;;;;;;;;;;;;;;;15.03;82.04;101947.84;1979641;29;19959;-69
2022/09/11 05:19:58;;;;;;;;;;;;;;;15.03;81.98;101944.34;1979763;29;19967;-69
2022/09/11 05:21:00;;;;;;;;;;;;;;;15.03;82.29;101949.78;1985328;29;19975;-69
2022/09/11 05:22:03;;;;;;;;;;;;;;;15.03;82.22;101944.34;1986903;29;19929;-69
2022/09/11 05:23:07;;;;;;;;;;;;;;;15.03;82.47;101950.56;1986796;29;19929;-69
2022/09/11 05:24:10;;;;;;;;;;;;;;;15.05;82.24;101952.16;1985385;29;19925;-68
2022/09/11 05:25:14;;;;;;;;;;;;;;;15.05;82.14;101955.66;1986358;29;19942;-69
2022/09/11 05:26:17;;;;;;;;;;;;;;;15.06;82.02;101959.19;1978904;29;19983;-68
2022/09/11 05:27:20;;;;;;;;;;;;;;;15.05;82.39;101952.94;1978200;29;20309;-69
2022/09/11 05:28:24;;;;;;;;;;;;;;;15.07;82.28;101960.75;1979306;29;19929;-68
2022/09/11 05:29:28;;;;;;;;;;;;;;;15.05;82.47;101952.94;1987020;29;19932;-69
2022/09/11 05:30:37;;;;;;;;;;;;;;;15.06;82.59;101954.53;1986873;29;19936;-68
2022/09/11 05:31:39;;;;;;;;;;;;;;;15.06;82.70;101962.69;1986710;29;19974;-68
2022/09/11 05:32:42;;;;;;;;;;;;;;;15.07;82.47;101967.00;1986669;29;19925;-68